Fort Lauderdale, FL

4:34 AM EDT on October 31, 2014 (GMT -0400)
APRSWXNET Fort Lauderdale FL US | Change Station
CLOSE
Current Station
Personal Weather Station
Location: Fort Lauderdale, FL
Elevation: 393 ft
Nearby Weather Stations

Elev 393 ft 26.10 °N, 80.11 °W | Updated 86 days ago

Partly Cloudy
Partly Cloudy
73 °F
Feels Like 73 °F
N
2
Wind Variable Wind from West
Gusts 3 mph

Today
High -- | Low -- °F
--% Chance of Precip.
Yesterday
High -- | Low -- °F
Precip. -- in
7:28 AM 6:39 PM
First Quarter, 53% visible
Pressure 29.83 in
Visibility 10.0 miles
Clouds Clear
Dew Point 64 °F
Humidity 71%
Rainfall -999.00 in
Snow Depth Not available.
UV 0 out of 12
Pollen 3.00 out of 12
Air Quality Not available.
Flu Activity Not available.
METAR KFLL 310753Z 24005KT 10SM CLR 23/21 A2983 RMK AO2 SLP099 T02330206

More Conditions Fewer Conditions

Pressure 29.83 in
Visibility 10.0 miles
Clouds Clear
Dew Point 64 °F
Humidity 71%
Rainfall -999.00 in
Snow Depth Not available.
UV 0 out of 12
Pollen 3.00 out of 12
Air Quality Not available.
Flu Activity Not available.
METAR KFLL 310753Z 24005KT 10SM CLR 23/21 A2983 RMK AO2 SLP099 T02330206

More Conditions Fewer Conditions

10-Day Weather Forecast

Almanac

Astronomy

Oct. 31, 2014 Rise Set
Actual Time
Civil Twilight
Nautical Twilight
Astronomical Twilight
Moon
Length of Visible Light
Length of Day
Tomorrow will be .
, % of the Moon is Illuminated

Today's Extremes

State Highs State Lows

Community

WunderPhotos

Upload Photos

1,766,573 photos uploaded!

WunderBlogs® & News

Nearby

Air Quality

  Air Quality AQ Index Pollutant
Not available.

Snow Depth

Station Depth Elevation

Earthquake Activity

City Distance Mag. Time & Date
Minimum magnitude displayed is 2.5.

Coastal Water Temperatures

Place Temperature

Nearby Weather Stations